Startpagina
METAR-TAF:

METAR-TAF

Vliegvelden :

Aeropuerto de Málaga-Costa del Sol

Málaga, Spanje

breedte: 36-40N, lengte: 004-29W, hoogte: 16 m

Actueel weer

Dit bericht is 28 minuten geleden gemaakt, om 05:30 UTC
Wind 5 kt uit het zuidzuidoosten, variërend tussen het oostzuidoosten en het zuiden
Temperatuur 20°C
Vochtigheid 88%
Druk 1011 hPa
Zicht 10 km of meer
geen wolken onder 1500 m en geen cumulonimbus

METAR: LEMG 160530Z 16005KT 120V190 CAVOK 20/18 Q1011 NOSIG

Tijdstip: 07:58 (05:58 UTC)

Verwachting

Dit bericht is 58 minuten geleden gemaakt, om 05:00 UTC
Verwachting geldig van 16 om 06 UTC tot 17 om 06 UTC
Wind 9 kt uit het zuidoosten
Zicht 10 km of meer
geen wolken onder 1500 m en geen cumulonimbus
Wijzigt naar
van 16 om 18 UTC tot 16 om 21 UTC
Wind 3 kt uit variabele richting
Kans 30% :
Tijdelijke
van 16 om 22 UTC tot 17 om 06 UTC
Zicht: 3000 m
Gebroken wolken op 900 ft
nevel

TAF: LEMG 160500Z 1606/1706 13009KT CAVOK TX28/1612Z TN21/1705Z BECMG 1618/1621 VRB03KT PROB30 TEMPO 1622/1706 3000 BR BKN009

Waarnemingen en weersverwachtingen van meer dan 4000 vliegvelden (METAR en TAF).

De beschikbare stations zijn de gele en rode punten op de kaart.

Ga met uw muis naar het station om de naam te zien.

Klik dan om waarnemingen en weersverwachtingen te zien.

kaart wijzigen: klik op de groene knoppen met een zwart kruis om in te zoomen, op de groene knop met een streepje om uit te zoomen of op de groene pijlen voor aangrenzende kaarten.


METAR-TAF: